NCAR-RAP Real-Time Weather Data

Output produced by METARs form (25 July 2017  06:28 UTC)
found at http://weather.rap.ucar.edu/surface/
 
KSYR 250554Z 00000KT 10SM OVC006 16/16 A2993 RMK AO2 SLP130 T01610161 10167 20156 53014 $
KSYR 250549Z 00000KT 10SM OVC006 16/16 A2992 RMK AO2 $
KSYR 250454Z 36003KT 10SM SCT006 BKN026 OVC031 16/16 A2991 RMK AO2 SLP125 T01610161 402330156 $
KSYR 250433Z 00000KT 10SM SCT006 BKN026 OVC031 16/16 A2990 RMK AO2 T01610161 $
KSYR 250354Z 00000KT 10SM OVC006 16/16 A2990 RMK AO2 SLP119 T01560156 $
KSYR 250254Z 05004KT 10SM OVC007 16/16 A2989 RMK AO2 SLP115 T01610156 51009 $
KSYR 250247Z 05003KT 10SM OVC007 16/16 A2989 RMK AO2 T01610156 $
KSYR 250216Z 04004KT 10SM BKN008 OVC065 16/16 A2988 RMK AO2 T01610156 $
KSYR 250154Z 00000KT 10SM SCT010 BKN070 BKN110 16/16 A2988 RMK AO2 SLP114 T01610156 $
KSYR 250059Z 12003KT 10SM SCT011 BKN035 BKN060 16/16 A2987 RMK AO2 T01610156 $
KSYR 250054Z 10004KT 10SM FEW011 BKN029 BKN060 16/16 A2987 RMK AO2 SLP109 T01610156 $
KSYR 242354Z 08006KT 10SM FEW010 BKN025 BKN039 17/16 A2986 RMK AO2 SLP106 60039 T01670156 10233 20167 51028 $
KSYR 242333Z 07007KT 10SM FEW011 BKN026 BKN048 17/16 A2984 RMK AO2 T01670161 $
KSYR 242254Z 05008KT 10SM FEW016 SCT032 SCT100 BKN220 17/17 A2983 RMK AO2 LTG DSNT SE AND S RAE26 SLP095 P0001 T01720167 $
KSYR 242154Z 03009KT 10SM -RA FEW043 SCT050 BKN100 BKN150 18/17 A2981 RMK AO2 LTG DSNT E AND SE SLP089 RAB28 SCT V BKN CB DSNT S P0001 T01780167 $
KSYR 242054Z COR 07008KT 10SM FEW014 SCT065 BKN120 BKN200 19/19 A2977 RMK AO2 LTG DSNT E AND W AND NW SLP078 TSB00E43 RAB14E49 P0037 60037 T01940189 55000 $
KSYR 242044Z COR 07009KT 8SM R28/5000VP6000FT -RA SCT018 SCT055 BKN200 19/19 A2977 RMK AO2 LTG DSNT W TSB00E43 RAB14 TS MOVD E LTG DSNT E P0037 T01940189 $
KSYR 242036Z 06012KT 3SM -TSRA BR SCT018 BKN055CB BKN200 19/18 A2977 RMK AO2 TSB00 RAB14 OCNL LTGIC N-NE TS N-NE MOV E P0030 T01890183 VISNO NW $
KSYR 242024Z 34010KT 1 1/4SM R28/2600VP6000FT TSRA BR SCT015 BKN055CB BKN070 OVC220 19/18 A2980 RMK AO2 RAB14 TSB00 PRESRR OCNL LTGICCC NW-N TS NW-N MOV SE P0004 T01940183 $
KSYR 242018Z 35013KT 2SM -TSRA FEW016 BKN055CB BKN070 OVC220 21/18 A2978 RMK AO2 LTG DSNT W RAB14 TSB00 OCNL LTGICCC NW-N TS NW-N MOV E P0000 T02110183 $
KSYR 242000Z VRB06KT 10SM TS FEW015 SCT060CB SCT200 BKN220 23/19 A2976 RMK AO2 TSB00 OCNL LTGIC NW TS NW MOV E T02280194
KSYR 241954Z 07009KT 10SM FEW015 SCT060 SCT100 BKN220 23/19 A2976 RMK AO2 LTG DSNT NW SLP073 CB DSNT NW MOD CU S T02280194
KSYR 241854Z 05007KT 10SM FEW009 SCT024 SCT100 SCT200 22/19 A2976 RMK AO2 LTG DSNT W AND NW RAE1757 SLP073 CB DSNT NW-N P0000 T02170189
KSYR 241754Z 08010KT 10SM -RA SCT006 BKN031 BKN080 OVC140 18/18 A2977 RMK AO2 RAB35 SLP078 P0000 60018 T01780178 10200 20178 55003
KSYR 241740Z 07010KT 10SM -RA SCT006 BKN029 BKN035 OVC140 18/18 A2977 RMK AO2 LTG DSNT S AND SW RAB35 SCT V BKN P0000 T01830178
KSYR 241712Z 08008KT 10SM BKN006 OVC034 18/18 A2977 RMK AO2 LTG DSNT S AND SW BKN V SCT T01830183
KSYR 241654Z 06010KT 10SM SCT005 BKN015 OVC030 19/19 A2977 RMK AO2 RAB1557E21 SLP077 P0004 T01940189
KSYR 241638Z 07009KT 10SM SCT004 BKN014 OVC030 19/19 A2977 RMK AO2 RAB1557E21 P0004 T01890189
KSYR 241636Z 07008KT 10SM SCT004 BKN009 OVC016 19/19 A2977 RMK AO2 RAB1557E21 P0004 T01940189
KSYR 241623Z 07008KT 10SM SCT004 BKN011 OVC017 18/18 A2977 RMK AO2 RAB1557E21 CIG 005 NW P0004 T01830183
KSYR 241610Z 06007KT 4SM -RA BR BKN004 OVC010 19/19 A2978 RMK AO2 RAB1557 P0004 T01890189
KSYR 241554Z 03004KT 10SM SCT005 BKN010 OVC020 19/19 A2978 RMK AO2 RAE54 CIG 009V013 SLP080 P0007 T01940194
KSYR 241551Z 03003KT 10SM -RA SCT005 BKN010 OVC021 19/19 A2978 RMK AO2 P0007
KSYR 241538Z 36005KT 5SM -RA BR FEW005 BKN020 OVC025 19/19 A2978 RMK AO2 VIS 1 3/4 NW CIG 015 NW P0007 T01940194
KSYR 241531Z 06004KT 3SM R28/5500VP6000FT RA BR FEW015 OVC023 19/19 A2978 RMK AO2 TWR VIS 4 P0006 T01940194
KSYR 241524Z 07003KT 2 1/2SM -RA BR BKN025 OVC034 19/19 A2978 RMK AO2 P0002 T01940189
KSYR 241510Z 16004KT 10SM -RA BKN025 OVC033 20/18 A2978 RMK AO2 LTG DSNT N P0001 T02000183
KSYR 241502Z VRB04KT 9SM VCTS -RA FEW022 BKN029 OVC042 20/19 A2979 RMK AO2 VIS 2 1/2 NW LTG DSNT N CIG 017 NW P0001 T02000189
KSYR 241454Z 16004KT 7SM -RA FEW023 BKN031 OVC042 20/19 A2978 RMK AO2 LTG DSNT N SLP080 RAE1355B11 TSB17E48 TS MOVD E P0007 60007 T02000194 53005
KSYR 241452Z VRB03KT 5SM -RA BR FEW023 BKN032 OVC042 20/19 A2978 RMK AO2 LTG DSNT N RAE1355B11 TSB17E48 TS MOVD E P0007
KSYR 241418Z 11003KT 9SM -TSRA BKN037CB OVC045 20/19 A2978 RMK AO2 LTG DSNT W-N RAE1355B11 TSB17 OCNL LTGICCG SW-W TS SW-W MOV E P0000 T02000189
KSYR 241413Z 10006KT 10SM VCTS -RA OVC039 20/19 A2977 RMK AO2 LTG DSNT SW-N RAE1355B11 P0000 T02000189
KSYR 241354Z 08007KT 10SM -RA SCT025 BKN043 OVC065 20/19 A2976 RMK AO2 LTG DSNT W-N RAB42 SLP072 P0000 T02000189
KSYR 241254Z 07007KT 10SM SCT045 SCT065 BKN120 OVC200 19/18 A2976 RMK AO2 RAE08B30E40 SLP071 P0000 T01890183
KSYR 241154Z VRB03KT 10SM -RA BKN060 BKN100 19/18 A2977 RMK AO2 RAE00B52 SLP075 P0000 60004 70004 T01890183 10222 20178 53009
KSYR 241054Z 10007KT 10SM -RA FEW035 BKN065 BKN080 BKN180 18/18 A2976 RMK AO2 TSE24 SLP071 P0004 T01830183
KSYR 241030Z 36003KT 7SM -RA FEW030 SCT050 BKN075 BKN180 18/17 A2977 RMK AO2 TSE24 P0003 T01780172
KSYR 240954Z 10006KT 10SM -TSRA SCT030CB SCT050 BKN080 BKN180 19/17 A2974 RMK AO2 LTG DSNT N DZE02RAB12 TSB35 SLP066 OCNL LTGICCG NW-N TS NW MOV NE PCPN VERY LIGHT P0000 T01890167
KSYR 240939Z 14005KT 10SM -TSRA SCT030CB SCT050 BKN080 BKN180 19/17 A2975 RMK AO2 LTG DSNT NW DZE02RAB12 TSB35 OCNL LTGICCG NW-N TS NW MOV NE P0000 T01940167
KSYR 240854Z 18004KT 10SM -DZ SCT060 BKN080 BKN095 OVC160 20/16 A2974 RMK AO2 LTG DSNT NW RAE22DZB22 SLP066 P0000 60000 T02000161 53003
KSYR 240754Z 14006KT 10SM -RA FEW030 SCT060 BKN090 OVC160 21/17 A2971 RMK AO2 RAE02B20 SLP055 P0000 T02060167
KSYR 240654Z 14012KT 10SM -RA FEW026 BKN046 BKN060 OVC160 22/17 A2973 RMK AO2 RAB47 SLP063 P0000 T02170172
KSYR 240554Z 12007KT 10SM SCT024 OVC190 22/18 A2974 RMK AO2 SLP063 T02170183 10222 20206 56010
KSYR 240454Z 09007KT 10SM SCT028 OVC220 21/19 A2974 RMK AO2 SLP064 T02060189 402390167
KSYR 240354Z 08007KT 10SM FEW006 SCT029 BKN180 BKN230 21/18 A2975 RMK AO2 SLP067 T02060183
KSYR 240254Z 06007KT 10SM SCT160 BKN250 21/18 A2976 RMK AO2 SLP073 T02110183 53004
KSYR 240154Z 06008KT 10SM SCT160 OVC250 22/19 A2977 RMK AO2 SLP074 T02170189
KSYR 240054Z 07008KT 10SM FEW075 BKN160 OVC240 22/19 A2974 RMK AO2 LTG DSNT N SLP067 T02170189
KSYR 232354Z 09007KT 10SM FEW040 SCT075 BKN090 OVC180 22/19 A2975 RMK AO2 RAE09 SLP069 P0000 60000 T02220189 10239 20222 55004
KSYR 232254Z 08009KT 10SM -RA FEW040 BKN055 BKN075 OVC180 23/19 A2975 RMK AO2 RAB49 SLP070 PCPN VERY LIGHT P0000 T02280189
KSYR 232154Z 07007KT 10SM FEW040 SCT060 BKN100 OVC200 23/19 A2976 RMK AO2 SLP073 T02330189
KSYR 232054Z 07007KT 10SM BKN070 BKN085 BKN100 23/19 A2976 RMK AO2 SLP073 T02330194 57012
KSYR 231954Z 06011KT 10SM BKN060 BKN080 BKN150 24/19 A2977 RMK AO2 SLP076 T02390189
KSYR 231854Z 07006KT 10SM BKN065 OVC100 23/19 A2979 RMK AO2 SLP084 T02280189
KSYR 231754Z 06005KT 10SM FEW050 BKN080 OVC120 23/19 A2980 RMK AO2 SLP085 T02330189 10239 20189 56004
KSYR 231654Z 09007KT 10SM FEW050 BKN085 OVC120 23/18 A2980 RMK AO2 SLP086 T02330183
KSYR 231554Z 07006KT 10SM BKN090 BKN120 23/19 A2980 RMK AO2 SLP085 T02330189
KSYR 231454Z 07008KT 10SM BKN095 OVC120 23/18 A2981 RMK AO2 SLP089 T02280183 53001
KSYR 231354Z 06006KT 10SM BKN100 OVC120 22/18 A2981 RMK AO2 SLP088 T02170178
KSYR 231254Z 07006KT 10SM BKN100 20/18 A2980 RMK AO2 SLP086 T02000178
KSYR 231154Z 11005KT 10SM BKN100 19/18 A2981 RMK AO2 SLP088 T01890178 10189 20167 53010
KSYR 231054Z 07005KT 7SM BKN110 BKN160 BKN250 17/17 A2979 RMK AO2 SLP083 T01720172
KSYR 230954Z 00000KT 9SM FEW004 BKN110 BKN160 BKN250 17/17 A2979 RMK AO2 SLP083 T01720172
KSYR 230854Z 12004KT 10SM FEW006 BKN110 BKN160 17/17 A2978 RMK AO2 SLP078 T01720167 55001
KSYR 230832Z 09004KT 10SM SCT006 BKN110 BKN160 17/17 A2978 RMK AO2 T01720172
KSYR 230754Z 07003KT 9SM SCT130 BKN160 17/17 A2977 RMK AO2 SLP075 T01720172
KSYR 230654Z 07003KT 8SM FEW140 BKN180 17/17 A2977 RMK AO2 SLP076 T01720172
KSYR 230554Z 00000KT 6SM BR SCT140 SCT190 18/18 A2978 RMK AO2 SLP079 T01780178 10222 20178 56010
KSYR 230454Z 00000KT 10SM BKN140 BKN190 18/18 A2979 RMK AO2 SLP082 T01830183 402560178
KSYR 230354Z 00000KT 10SM SCT150 BKN210 19/18 A2980 RMK AO2 SLP085 T01890178
KSYR 230254Z 00000KT 10SM BKN150 19/18 A2981 RMK AO2 SLP089 T01940178 50007
KSYR 230154Z 00000KT 10SM OVC150 21/18 A2982 RMK AO2 SLP091 T02060183
KSYR 230054Z 00000KT 10SM BKN160 OVC240 21/18 A2980 RMK AO2 SLP085 OVC V BKN T02110183
KSYR 222354Z 05004KT 10SM FEW090 BKN150 OVC190 22/19 A2979 RMK AO2 SLP082 60000 T02170189 10256 20217 56008
KSYR 222254Z 04004KT 10SM SCT120 OVC150 23/19 A2979 RMK AO2 SLP083 OVC V BKN T02280189
KSYR 222154Z 04005KT 10SM FEW050 BKN110 OVC150 23/19 A2980 RMK AO2 RAB36E50 SLP085 P0000 T02280189
KSYR 222054Z 04006KT 10SM FEW090 BKN120 OVC150 23/19 A2981 RMK AO2 RAE14B32E53 SLP090 P0000 60000 T02330189 58017
KSYR 221954Z 33003KT 10SM -RA SCT080 BKN100 OVC140 24/17 A2984 RMK AO2 RAB20 SLP099 P0000 T02440172
KSYR 221854Z 24004KT 10SM SCT110 BKN180 OVC240 25/16 A2985 RMK AO2 RAE14 SLP102 P0000 T02500156
KSYR 221754Z 26003KT 10SM -RA FEW090 SCT110 OVC180 24/17 A2986 RMK AO2 RAB50 SLP107 P0000 60000 T02440172 10244 20206 58012
KSYR 221654Z 27005KT 10SM BKN180 OVC250 24/17 A2988 RMK AO2 SLP113 T02390172
KSYR 221554Z 26005KT 10SM BKN160 OVC220 23/17 A2989 RMK AO2 SLP117 T02330172
KSYR 221454Z 27005KT 10SM BKN160 OVC220 23/16 A2990 RMK AO2 SLP119 T02330161 56004
KSYR 221354Z 22005KT 10SM BKN160 OVC220 23/17 A2990 RMK AO2 SLP120 T02280172
KSYR 221254Z 22005KT 10SM BKN180 BKN220 22/17 A2990 RMK AO2 SLP120 T02220167 $
KSYR 221154Z 22003KT 10SM BKN180 OVC220 21/17 A2991 RMK AO2 SLP123 T02060167 10211 20183 53006 $
KSYR 221054Z 25004KT 10SM BKN180 BKN220 20/16 A2990 RMK AO2 SLP119 T02000161 $
KSYR 220954Z 00000KT 10SM BKN190 BKN250 19/16 A2989 RMK AO2 SLP116 T01890156 $
KSYR 220854Z 00000KT 10SM BKN240 19/15 A2989 RMK AO2 SLP116 T01890150 55009 $
KSYR 220754Z 00000KT 10SM SCT200 OVC230 19/16 A2987 RMK AO2 SLP111 T01940161 $
KSYR 220654Z 24007KT 10SM OVC230 21/15 A2990 RMK AO2 SLP119 T02060150 $
KSYR 220554Z 25007KT 10SM SCT210 OVC230 21/15 A2992 RMK AO2 SLP124 T02060150 10239 20189 51007 $
KSYR 220454Z 24006KT 10SM FEW200 BKN220 20/15 A2991 RMK AO2 SLP124 BKN V OVC T02000150 402890189 $
KSYR 220354Z 27006KT 10SM FEW140 SCT250 19/15 A2990 RMK AO2 SLP120 T01940150 $
KSYR 220254Z 23005KT 10SM FEW120 BKN200 21/15 A2989 RMK AO2 SLP117 T02060150 VISNO NW $
KSYR 220154Z 23004KT 10SM FEW120 BKN200 21/15 A2990 RMK AO2 SLP119 T02060150
KSYR 220054Z 26006KT 10SM FEW120 BKN200 22/15 A2990 RMK AO2 SLP118 T02170150
KSYR 212354Z 27007KT 10SM FEW120 BKN200 24/14 A2989 RMK AO2 SLP116 T02390144 10289 20239 53005
KSYR 212254Z 31008KT 10SM FEW045 BKN200 25/14 A2988 RMK AO2 SLP114 T02500139
KSYR 212154Z 30009KT 10SM FEW045 OVC200 27/17 A2988 RMK AO2 SLP113 T02670172
KSYR 212054Z 31009KT 10SM SCT045 OVC200 27/19 A2988 RMK AO2 SLP112 T02720194 58004
KSYR 211954Z 29008KT 10SM SCT045 OVC200 28/19 A2988 RMK AO2 SLP113 T02780189
KSYR 211854Z 27011KT 10SM SCT045 SCT050 OVC200 28/19 A2989 RMK AO2 SLP115 T02830189
KSYR 211754Z 27010KT 10SM FEW045 OVC200 28/18 A2989 RMK AO2 SLP115 T02780183 10283 20217 58010
KSYR 211654Z 27012G15KT 10SM FEW036 SCT045 BKN250 27/18 A2989 RMK AO2 SLP118 T02720183
KSYR 211554Z 29007KT 10SM SCT035 27/19 A2992 RMK AO2 SLP125 T02720194
KSYR 211454Z 25009KT 10SM SCT021 SCT026 26/21 A2992 RMK AO2 SLP126 SCT026 V BKN T02560206 58001
KSYR 211438Z 28007KT 10SM BKN020 BKN026 25/21 A2992 RMK AO2 BKN020 V SCT T02500206
KSYR 211409Z 26005KT 10SM SCT017 24/21 A2992 RMK AO2 T02440206
KSYR 211354Z 26007KT 10SM BKN015 BKN040 24/21 A2993 RMK AO2 SLP129 BKN015 V SCT T02390206
KSYR 211348Z 24007KT 10SM BKN015 BKN040 23/21 A2993 RMK AO2 BKN015 V SCT
KSYR 211325Z 26006KT 9SM SCT014 BKN040 23/21 A2993 RMK AO2 T02330206
KSYR 211304Z 27006KT 7SM BKN011 OVC040 22/21 A2993 RMK AO2 T02220206
KSYR 211254Z 29006KT 7SM BKN009 OVC023 22/21 A2993 RMK AO2 SLP130 T02220206
KSYR 211201Z 28007KT 7SM BKN008 OVC045 22/21 A2993 RMK AO2 T02170206
KSYR 211154Z 27008KT 7SM BKN010 OVC046 22/21 A2992 RMK AO2 SLP127 70003 T02170206 10217 20189 53008
KSYR 211054Z 26006KT 8SM BCFG BKN013 21/21 A2991 RMK AO2 SLP122 VIS SE 1 T02110206
KSYR 211016Z 00000KT 7SM BCFG BKN013 BKN045 19/19 A2990 RMK AO2 VIS SE 3/4 T01890189
KSYR 210954Z 00000KT 5SM BR FEW021 SCT046 19/19 A2990 RMK AO2 SLP121 T01890189
KSYR 210854Z 00000KT 9SM OVC047 20/20 A2990 RMK AO2 SLP119 OVC V BKN T02000200 53001
KSYR 210754Z 32003KT 10SM FEW019 SCT035 20/20 A2989 RMK AO2 SLP116 T02000200
KSYR 210654Z 27005KT 10SM FEW017 OVC038 21/21 A2989 RMK AO2 SLP115 OVC V BKN T02110206
KSYR 210554Z 25006KT 10SM SCT020 BKN032 22/21 A2989 RMK AO2 SLP118 BKN V OVC T02170206 10228 20194 58002
KSYR 210454Z 26003KT 10SM FEW026 SCT033 20/19 A2990 RMK AO2 SLP119 T02000189 402780194
KSYR 210354Z 00000KT 10SM SCT024 BKN033 21/18 A2990 RMK AO2 SLP119 T02110178
KSYR 210254Z 00000KT 10SM BKN027 22/18 A2990 RMK AO2 SLP119 T02170183 50008